Time;durP1;ratioP1;P1;durP2;ratioP2;P2;SDS_P1;SDS_P2;PMS_P1;PMS_P2;Temp;Humidity;BMP_temperature;BMP_pressure;BME280_temperature;BME280_humidity;BME280_pressure;Samples;Min_cycle;Max_cycle;Signal;HPM_P1;HPM_P2
2023/12/17 00:01:36;;;;;;;8.27;3.62;;;4.50;70.70;;;;;;2259808;55;20993;-66
2023/12/17 00:04:03;;;;;;;10.05;4.20;;;4.50;70.80;;;;;;2260488;55;21406;-66
2023/12/17 00:06:29;;;;;;;8.43;3.80;;;4.40;70.80;;;;;;2486685;55;21524;-66
2023/12/17 00:09:00;;;;;;;8.13;4.53;;;4.40;70.80;;;;;;2489075;54;21246;-65
2023/12/17 00:11:27;;;;;;;7.57;4.03;;;4.40;70.60;;;;;;2264537;56;20966;-66
2023/12/17 00:13:56;;;;;;;7.97;3.60;;;4.40;70.70;;;;;;2227033;56;21048;-65
2023/12/17 00:16:22;;;;;;;7.15;3.30;;;4.40;70.70;;;;;;2263901;56;21559;-65
2023/12/17 00:18:48;;;;;;;7.80;3.60;;;4.40;70.70;;;;;;2493107;55;21143;-66
2023/12/17 00:21:17;;;;;;;8.18;3.70;;;4.40;70.60;;;;;;2260321;55;21435;-65
2023/12/17 00:23:43;;;;;;;8.95;3.80;;;4.40;70.50;;;;;;2249958;55;20979;-65
2023/12/17 00:26:10;;;;;;;9.43;4.90;;;4.40;70.50;;;;;;2473752;55;20963;-65
2023/12/17 00:28:37;;;;;;;10.63;4.87;;;4.40;70.50;;;;;;2261547;56;21020;-65
2023/12/17 00:31:03;;;;;;;13.00;6.10;;;4.30;70.50;;;;;;2520083;55;21648;-66
2023/12/17 00:33:29;;;;;;;13.65;6.65;;;4.30;70.50;;;;;;2258530;55;21022;-65
2023/12/17 00:35:56;;;;;;;12.07;5.93;;;4.30;70.50;;;;;;2263986;56;20973;-65
2023/12/17 00:38:24;;;;;;;11.52;6.00;;;4.30;70.50;;;;;;2498894;55;20964;-65
2023/12/17 00:40:54;;;;;;;14.80;7.35;;;4.30;70.50;;;;;;2286238;56;21061;-66
2023/12/17 00:43:20;;;;;;;15.88;7.15;;;4.30;70.50;;;;;;2245453;56;21036;-66
2023/12/17 00:45:47;;;;;;;15.50;7.60;;;4.30;70.60;;;;;;2231594;55;20987;-66
2023/12/17 00:48:14;;;;;;;13.73;7.35;;;4.30;70.60;;;;;;2246858;56;21449;-65
2023/12/17 00:50:42;;;;;;;16.02;6.87;;;4.30;70.70;;;;;;2261521;55;21035;-65
2023/12/17 00:53:08;;;;;;;11.60;6.12;;;4.20;70.60;;;;;;2246398;56;20958;-65
2023/12/17 00:55:35;;;;;;;11.20;5.78;;;4.20;70.60;;;;;;2471806;55;20955;-66
2023/12/17 00:58:01;;;;;;;11.57;6.07;;;4.20;70.60;;;;;;2262175;55;20971;-66
2023/12/17 01:00:29;;;;;;;10.88;5.43;;;4.20;70.60;;;;;;2507957;54;20992;-65
2023/12/17 01:02:57;;;;;;;9.43;5.40;;;4.20;70.60;;;;;;2492636;55;21677;-65
2023/12/17 01:05:26;;;;;;;9.30;4.87;;;4.20;70.60;;;;;;2500787;55;21011;-65
2023/12/17 01:07:52;;;;;;;8.35;4.62;;;4.20;70.70;;;;;;2260509;55;21590;-65
2023/12/17 01:10:19;;;;;;;9.02;4.97;;;4.20;70.70;;;;;;2489283;54;21702;-65
2023/12/17 01:12:45;;;;;;;9.77;5.37;;;4.20;70.80;;;;;;2260833;56;21037;-65
2023/12/17 01:15:12;;;;;;;9.63;4.97;;;4.20;70.80;;;;;;2260287;56;20966;-65
2023/12/17 01:17:38;;;;;;;8.40;4.95;;;4.20;70.80;;;;;;2260828;56;21769;-66
2023/12/17 01:20:08;;;;;;;6.95;4.15;;;4.20;70.90;;;;;;2469413;55;20943;-65
2023/12/17 01:22:34;;;;;;;8.48;4.43;;;4.20;70.90;;;;;;2480780;54;20943;-65
2023/12/17 01:25:00;;;;;;;7.70;4.03;;;4.20;70.80;;;;;;2261150;56;20965;-66
2023/12/17 01:27:27;;;;;;;8.93;4.43;;;4.20;70.80;;;;;;2517211;54;20964;-65
2023/12/17 01:29:53;;;;;;;8.32;4.30;;;4.20;70.80;;;;;;2285320;56;21003;-65
2023/12/17 01:32:20;;;;;;;7.30;4.05;;;4.20;70.90;;;;;;2511750;55;20966;-65
2023/12/17 01:34:46;;;;;;;7.78;4.50;;;4.20;70.90;;;;;;2258981;56;20944;-66
2023/12/17 01:37:13;;;;;;;8.00;4.25;;;4.20;70.90;;;;;;2519007;54;21181;-65
2023/12/17 01:39:39;;;;;;;8.60;4.43;;;4.20;71.00;;;;;;2260144;56;21049;-65
2023/12/17 01:42:06;;;;;;;9.18;4.07;;;4.20;71.10;;;;;;2264165;56;20973;-65
2023/12/17 01:44:58;;;;;;;9.25;4.35;;;4.20;71.20;;;;;;2265918;56;20958;-65
2023/12/17 01:47:25;;;;;;;9.38;4.40;;;4.20;70.90;;;;;;2262913;56;20908;-65
2023/12/17 01:49:51;;;;;;;7.57;4.45;;;4.20;71.10;;;;;;2485518;55;21021;-65
2023/12/17 01:52:19;;;;;;;7.37;3.83;;;4.20;71.00;;;;;;2244765;56;20949;-65
2023/12/17 01:54:45;;;;;;;6.97;3.70;;;4.20;71.00;;;;;;2264153;56;21544;-65
2023/12/17 01:57:12;;;;;;;7.30;3.65;;;4.20;70.90;;;;;;2272896;56;21738;-65
2023/12/17 01:59:41;;;;;;;7.03;3.42;;;4.20;70.90;;;;;;2504418;54;21019;-65
2023/12/17 02:02:09;;;;;;;5.93;2.90;;;4.20;70.90;;;;;;2261171;56;21028;-65
2023/12/17 02:04:37;;;;;;;8.98;4.15;;;4.20;70.80;;;;;;2498389;55;21069;-66
2023/12/17 02:07:04;;;;;;;5.75;3.10;;;4.20;70.80;;;;;;2498427;55;20965;-66
2023/12/17 02:09:31;;;;;;;8.05;4.07;;;4.20;70.80;;;;;;2274604;56;21081;-65
2023/12/17 02:11:57;;;;;;;8.90;4.70;;;4.20;70.80;;;;;;2492605;54;21880;-65
2023/12/17 02:14:24;;;;;;;8.20;3.97;;;4.20;70.80;;;;;;2506707;54;21061;-65
2023/12/17 02:16:50;;;;;;;9.57;3.80;;;4.10;70.70;;;;;;2487368;54;20983;-65
2023/12/17 02:19:21;;;;;;;6.95;3.72;;;4.20;70.80;;;;;;2286205;56;21828;-65
2023/12/17 02:21:47;;;;;;;7.22;3.55;;;4.20;70.80;;;;;;2504499;55;21035;-66
2023/12/17 02:24:14;;;;;;;7.65;4.12;;;4.20;70.80;;;;;;2285875;55;20956;-65
2023/12/17 02:26:41;;;;;;;6.53;3.10;;;4.20;70.80;;;;;;2479207;55;20951;-65
2023/12/17 02:29:08;;;;;;;6.45;3.25;;;4.20;70.80;;;;;;2285636;56;20987;-65
2023/12/17 02:31:34;;;;;;;7.75;3.28;;;4.10;70.70;;;;;;2252466;56;20964;-64
2023/12/17 02:34:01;;;;;;;6.18;3.10;;;4.10;70.70;;;;;;2265683;56;20970;-66
2023/12/17 02:36:27;;;;;;;6.78;3.53;;;4.10;70.70;;;;;;2261913;55;21059;-65
2023/12/17 02:38:54;;;;;;;6.22;3.40;;;4.10;70.70;;;;;;2252920;55;20991;-65
2023/12/17 02:41:26;;;;;;;6.62;3.40;;;4.10;70.70;;;;;;2253853;54;20963;-65
2023/12/17 02:43:57;;;;;;;5.53;2.92;;;4.10;70.70;;;;;;2251855;56;21109;-65
2023/12/17 02:46:24;;;;;;;7.00;2.72;;;4.10;70.70;;;;;;2269788;56;21011;-65
2023/12/17 02:48:50;;;;;;;5.25;2.78;;;4.10;70.70;;;;;;2259509;55;21302;-65
2023/12/17 02:51:17;;;;;;;7.72;3.03;;;4.10;70.70;;;;;;2265651;56;20999;-65
2023/12/17 02:53:43;;;;;;;4.20;2.20;;;4.10;70.70;;;;;;2488458;55;21483;-65
2023/12/17 02:56:10;;;;;;;4.65;2.50;;;4.10;70.70;;;;;;2270504;55;20996;-65
2023/12/17 02:58:39;;;;;;;4.90;2.60;;;4.10;70.70;;;;;;2488499;55;20943;-65
2023/12/17 03:01:06;;;;;;;8.40;3.35;;;4.10;70.70;;;;;;2238726;57;21783;-65
2023/12/17 03:03:33;;;;;;;6.22;3.08;;;4.10;70.70;;;;;;2248090;56;21065;-65
2023/12/17 03:05:59;;;;;;;5.35;2.62;;;4.10;70.80;;;;;;2255940;55;21056;-65
2023/12/17 03:08:26;;;;;;;5.57;2.90;;;4.10;70.80;;;;;;2253422;55;20958;-65
2023/12/17 03:10:52;;;;;;;6.15;2.90;;;4.10;70.80;;;;;;2488880;55;20974;-64
2023/12/17 03:13:19;;;;;;;4.60;2.67;;;4.10;70.80;;;;;;2260295;56;20942;-65
2023/12/17 03:15:45;;;;;;;5.00;2.37;;;4.10;70.80;;;;;;2487148;54;21425;-65
2023/12/17 03:18:15;;;;;;;7.30;3.05;;;4.10;70.90;;;;;;2260114;55;20980;-65
2023/12/17 03:20:42;;;;;;;5.25;2.65;;;4.10;70.90;;;;;;2480165;55;21855;-65
2023/12/17 03:23:09;;;;;;;4.87;2.30;;;4.10;71.60;;;;;;2231419;57;21029;-65
2023/12/17 03:25:37;;;;;;;4.57;2.28;;;4.10;70.80;;;;;;2486636;54;20942;-65
2023/12/17 03:28:04;;;;;;;4.97;2.70;;;4.10;70.80;;;;;;2472535;55;21018;-65
2023/12/17 03:30:30;;;;;;;6.07;2.72;;;3.90;70.60;;;;;;2261412;55;21397;-64
2023/12/17 03:32:56;;;;;;;4.55;2.65;;;4.10;70.80;;;;;;2488624;54;21342;-65
2023/12/17 03:35:24;;;;;;;7.53;3.45;;;4.00;70.70;;;;;;2487267;54;20965;-64
2023/12/17 03:37:50;;;;;;;10.05;4.50;;;4.00;70.70;;;;;;2253159;55;20999;-65
2023/12/17 03:40:17;;;;;;;8.70;3.87;;;4.00;70.80;;;;;;2246800;55;20998;-65
2023/12/17 03:42:46;;;;;;;7.60;3.45;;;4.00;70.90;;;;;;2459345;55;21433;-65
2023/12/17 03:45:18;;;;;;;7.00;3.50;;;4.00;70.90;;;;;;2269156;55;20970;-65
2023/12/17 03:47:46;;;;;;;7.87;4.03;;;4.00;70.90;;;;;;2470121;55;20955;-65
2023/12/17 03:50:15;;;;;;;8.15;4.37;;;4.00;70.80;;;;;;2502585;54;20979;-65
2023/12/17 03:52:46;;;;;;;8.57;4.07;;;4.00;70.90;;;;;;2249418;55;21026;-64
2023/12/17 03:55:16;;;;;;;8.15;4.12;;;3.90;70.70;;;;;;2487052;55;21014;-65
2023/12/17 03:57:42;;;;;;;6.50;3.62;;;4.00;70.80;;;;;;2237147;56;20966;-65
2023/12/17 04:00:10;;;;;;;5.68;2.80;;;4.00;70.80;;;;;;2263888;55;20971;-66
2023/12/17 04:02:38;;;;;;;9.48;4.07;;;4.00;70.80;;;;;;2498379;54;20974;-63
2023/12/17 04:05:07;;;;;;;13.55;5.00;;;4.00;70.70;;;;;;2259853;55;21018;-63
2023/12/17 04:07:34;;;;;;;13.62;5.60;;;4.00;70.70;;;;;;2483055;55;21033;-65
2023/12/17 04:10:01;;;;;;;9.25;4.20;;;3.80;70.50;;;;;;2274872;56;21832;-65
2023/12/17 04:12:27;;;;;;;8.63;4.00;;;4.00;70.70;;;;;;2494864;55;21297;-65
2023/12/17 04:14:54;;;;;;;7.45;3.37;;;4.00;70.70;;;;;;2270577;55;20995;-65
2023/12/17 04:17:24;;;;;;;6.62;3.53;;;4.00;70.60;;;;;;2255762;56;20959;-65
2023/12/17 04:19:51;;;;;;;7.05;3.10;;;4.00;70.70;;;;;;2267711;55;21413;-66
2023/12/17 04:22:17;;;;;;;7.00;3.22;;;3.90;70.70;;;;;;2504776;55;20974;-66
2023/12/17 04:24:43;;;;;;;5.95;2.95;;;4.00;70.80;;;;;;2491588;55;20976;-65
2023/12/17 04:27:10;;;;;;;5.00;2.70;;;4.00;70.80;;;;;;2476028;55;21045;-65
2023/12/17 04:29:37;;;;;;;4.62;2.33;;;4.00;70.70;;;;;;2285115;56;21654;-66
2023/12/17 04:32:04;;;;;;;5.62;2.70;;;4.00;70.80;;;;;;2519488;54;21110;-64
2023/12/17 04:34:42;;;;;;;6.15;2.53;;;4.00;70.70;;;;;;2285412;55;21059;-65
2023/12/17 04:37:11;;;;;;;4.85;2.28;;;4.00;70.60;;;;;;2286936;55;22053;-65
2023/12/17 04:39:37;;;;;;;4.35;2.42;;;3.90;70.60;;;;;;2285527;56;21434;-66
2023/12/17 04:42:06;;;;;;;5.20;2.12;;;3.90;70.50;;;;;;2516622;55;20972;-66
2023/12/17 04:44:33;;;;;;;4.80;2.00;;;3.90;70.60;;;;;;2271439;56;21048;-65
2023/12/17 04:46:59;;;;;;;4.55;2.40;;;3.90;70.60;;;;;;2285133;56;21946;-65
2023/12/17 04:49:26;;;;;;;4.60;2.25;;;3.90;70.50;;;;;;2252413;56;21421;-66
2023/12/17 04:51:52;;;;;;;4.65;2.15;;;3.90;70.50;;;;;;2285993;56;21000;-66
2023/12/17 04:57:47;;;;;;;5.60;2.50;;;3.90;70.40;;;;;;2517448;55;21940;-66
2023/12/17 05:00:17;;;;;;;5.37;2.40;;;3.90;70.50;;;;;;2286181;55;21075;-65
2023/12/17 05:02:43;;;;;;;5.97;2.50;;;3.90;70.40;;;;;;2515306;55;21024;-66
2023/12/17 05:05:11;;;;;;;4.85;2.70;;;3.80;70.30;;;;;;2504102;54;20968;-65
2023/12/17 05:07:37;;;;;;;6.90;2.87;;;3.80;70.30;;;;;;2513941;55;20960;-67
2023/12/17 05:10:04;;;;;;;9.02;2.87;;;3.80;70.30;;;;;;2252704;56;21103;-65
2023/12/17 05:12:31;;;;;;;5.95;2.90;;;3.80;70.30;;;;;;2269782;56;20966;-64
2023/12/17 05:14:57;;;;;;;5.40;2.72;;;3.70;70.20;;;;;;2251561;56;21790;-64
2023/12/17 05:17:27;;;;;;;5.05;2.45;;;3.70;70.30;;;;;;2286167;55;20940;-65
2023/12/17 05:19:53;;;;;;;5.22;2.42;;;3.70;70.40;;;;;;2474724;55;21435;-65
2023/12/17 05:22:19;;;;;;;8.68;2.50;;;3.70;70.50;;;;;;2253212;56;20950;-66
2023/12/17 05:24:46;;;;;;;4.22;2.25;;;3.70;70.50;;;;;;2250857;56;20986;-65
2023/12/17 05:27:12;;;;;;;5.72;2.20;;;3.70;70.60;;;;;;2252640;55;21028;-64
2023/12/17 05:29:38;;;;;;;3.95;2.00;;;3.70;70.70;;;;;;2478805;55;21884;-65
2023/12/17 05:32:07;;;;;;;4.05;2.08;;;3.70;70.70;;;;;;2515246;54;20991;-66
2023/12/17 05:34:33;;;;;;;3.53;1.95;;;3.70;70.80;;;;;;2260676;56;20985;-66
2023/12/17 05:37:00;;;;;;;6.30;2.15;;;3.70;70.90;;;;;;2277947;56;21032;-65
2023/12/17 05:39:27;;;;;;;5.85;2.10;;;3.70;71.10;;;;;;2264740;56;20956;-66
2023/12/17 05:41:53;;;;;;;5.12;2.33;;;3.70;71.20;;;;;;2274068;56;20960;-66
2023/12/17 05:44:23;;;;;;;6.50;2.70;;;3.70;71.30;;;;;;2250818;56;21093;-66
2023/12/17 05:46:52;;;;;;;3.92;2.40;;;3.70;71.40;;;;;;2244365;56;20990;-65
2023/12/17 05:49:18;;;;;;;5.65;2.67;;;3.80;71.50;;;;;;2277830;56;21440;-65
2023/12/17 05:51:44;;;;;;;9.45;2.50;;;3.80;71.50;;;;;;2262612;56;21002;-65
2023/12/17 05:54:19;;;;;;;5.75;2.20;;;3.80;71.50;;;;;;2264874;56;20990;-66
2023/12/17 05:56:46;;;;;;;5.40;2.28;;;3.80;71.50;;;;;;2266579;55;20963;-65
2023/12/17 05:59:12;;;;;;;7.62;2.70;;;3.90;71.70;;;;;;2286432;56;21036;-65
2023/12/17 06:01:38;;;;;;;5.07;2.37;;;3.90;71.60;;;;;;2285949;56;20964;-66
2023/12/17 06:04:05;;;;;;;5.97;2.40;;;3.90;71.50;;;;;;2286304;55;20976;-66
2023/12/17 06:06:32;;;;;;;4.57;2.15;;;3.90;71.40;;;;;;2271483;55;20946;-66
2023/12/17 06:08:59;;;;;;;3.67;2.08;;;3.90;71.30;;;;;;2262089;55;20978;-65
2023/12/17 06:11:25;;;;;;;4.12;2.10;;;3.90;71.20;;;;;;2229751;56;21026;-66
2023/12/17 06:13:53;;;;;;;3.58;2.00;;;3.90;71.10;;;;;;2262664;56;21158;-66
2023/12/17 06:16:31;;;;;;;3.97;1.95;;;3.90;71.10;;;;;;2250150;56;21032;-65
2023/12/17 06:19:00;;;;;;;4.30;2.35;;;3.90;70.90;;;;;;2261182;55;20974;-66
2023/12/17 06:21:26;;;;;;;4.47;2.65;;;3.90;71.00;;;;;;2519113;54;21101;-66
2023/12/17 06:23:57;;;;;;;4.32;2.47;;;3.90;71.00;;;;;;2299435;55;20939;-66
2023/12/17 06:26:24;;;;;;;4.57;2.62;;;3.90;71.10;;;;;;2287983;55;20959;-66
2023/12/17 06:28:51;;;;;;;4.03;2.42;;;3.90;71.00;;;;;;2535958;54;21003;-65
2023/12/17 06:31:17;;;;;;;3.72;2.05;;;3.90;71.00;;;;;;2532572;54;21417;-65
2023/12/17 06:33:43;;;;;;;4.37;2.50;;;4.00;71.00;;;;;;2518852;54;20947;-66
2023/12/17 06:36:14;;;;;;;3.85;1.98;;;3.90;71.00;;;;;;2281741;55;21049;-65
2023/12/17 06:38:42;;;;;;;4.17;2.20;;;4.00;71.00;;;;;;2535992;54;20980;-65
2023/12/17 06:41:09;;;;;;;4.75;2.25;;;3.90;70.90;;;;;;2518883;54;21335;-66
2023/12/17 06:43:36;;;;;;;4.25;2.40;;;4.00;71.00;;;;;;2298496;55;21335;-65
2023/12/17 06:46:04;;;;;;;5.68;2.17;;;4.00;71.00;;;;;;2498254;54;20960;-65
2023/12/17 06:48:30;;;;;;;4.37;2.22;;;4.00;70.90;;;;;;2294733;55;20940;-66
2023/12/17 06:50:59;;;;;;;4.57;2.30;;;4.00;70.90;;;;;;2291540;55;21495;-66
2023/12/17 06:53:26;;;;;;;3.72;1.90;;;4.00;70.80;;;;;;2295803;55;20980;-66
2023/12/17 06:55:52;;;;;;;4.78;2.50;;;4.00;70.70;;;;;;2517965;54;21718;-66
2023/12/17 06:58:20;;;;;;;5.47;2.55;;;3.90;70.50;;;;;;2298967;56;21524;-66
2023/12/17 07:00:46;;;;;;;4.05;2.00;;;3.90;70.20;;;;;;2299939;55;21913;-65
2023/12/17 07:03:13;;;;;;;4.03;2.25;;;3.90;70.00;;;;;;2266747;56;20956;-65
2023/12/17 07:05:39;;;;;;;3.45;1.95;;;3.90;70.00;;;;;;2488797;55;21028;-66
2023/12/17 07:08:05;;;;;;;3.83;1.92;;;3.80;69.80;;;;;;2263368;56;21085;-66
2023/12/17 07:10:31;;;;;;;4.10;1.98;;;3.80;69.80;;;;;;2260767;55;21976;-66
2023/12/17 07:12:58;;;;;;;3.87;1.87;;;3.80;69.90;;;;;;2259279;56;21014;-64
2023/12/17 07:15:24;;;;;;;3.90;1.98;;;3.70;69.80;;;;;;2488342;54;21470;-66
2023/12/17 07:17:51;;;;;;;3.83;1.92;;;3.70;69.70;;;;;;2487018;54;21854;-66
2023/12/17 07:20:19;;;;;;;3.22;1.67;;;3.70;69.70;;;;;;2261842;56;20946;-65
2023/12/17 07:22:47;;;;;;;4.43;2.10;;;3.70;69.80;;;;;;2476709;54;21003;-66
2023/12/17 07:25:15;;;;;;;6.40;2.22;;;3.60;69.70;;;;;;2259332;55;20959;-66
2023/12/17 07:27:58;;;;;;;3.97;2.05;;;3.60;69.90;;;;;;2261342;55;21025;-66
2023/12/17 07:30:25;;;;;;;6.20;2.65;;;3.60;69.90;;;;;;2261177;55;21506;-66
2023/12/17 07:32:51;;;;;;;4.97;2.08;;;3.60;70.10;;;;;;2494918;54;20970;-66
2023/12/17 07:35:17;;;;;;;5.05;2.35;;;3.60;70.30;;;;;;2260057;56;20944;-66
2023/12/17 07:37:44;;;;;;;4.97;2.70;;;3.60;70.30;;;;;;2248929;57;20996;-65
2023/12/17 07:40:10;;;;;;;4.85;2.62;;;3.60;70.30;;;;;;2487890;55;20955;-66
2023/12/17 07:42:37;;;;;;;9.63;3.25;;;3.50;70.30;;;;;;2253157;55;21820;-65
2023/12/17 07:45:04;;;;;;;7.90;3.53;;;3.60;70.50;;;;;;2256501;56;21681;-66
2023/12/17 07:47:34;;;;;;;11.85;3.83;;;3.50;70.60;;;;;;2488616;55;20998;-66
2023/12/17 07:50:00;;;;;;;12.68;4.10;;;3.60;70.80;;;;;;2260923;55;20942;-66
2023/12/17 07:52:26;;;;;;;13.00;3.95;;;3.60;71.00;;;;;;2260487;56;21034;-65
2023/12/17 07:54:53;;;;;;;14.65;4.35;;;3.60;71.00;;;;;;2483540;55;20970;-66
2023/12/17 07:57:19;;;;;;;19.62;3.62;;;3.60;71.10;;;;;;2254806;55;20950;-65
2023/12/17 07:59:47;;;;;;;11.20;3.42;;;3.60;71.00;;;;;;2260131;54;20998;-66
2023/12/17 08:02:17;;;;;;;8.93;2.85;;;3.60;71.00;;;;;;2260753;56;20960;-66
2023/12/17 08:04:45;;;;;;;9.65;3.25;;;3.70;71.20;;;;;;2489273;55;20956;-66
2023/12/17 08:07:13;;;;;;;7.28;3.50;;;3.70;71.20;;;;;;2253976;56;21046;-66
2023/12/17 08:09:39;;;;;;;10.82;3.53;;;3.70;71.30;;;;;;2235674;56;21367;-66
2023/12/17 08:12:06;;;;;;;10.68;3.55;;;3.70;71.30;;;;;;2260242;56;21002;-66
2023/12/17 08:14:35;;;;;;;6.50;3.12;;;3.70;71.40;;;;;;2488326;55;20988;-66
2023/12/17 08:17:02;;;;;;;5.85;3.67;;;3.70;71.40;;;;;;2247463;55;21077;-65
2023/12/17 08:19:28;;;;;;;8.73;3.45;;;3.80;71.50;;;;;;2266235;56;21062;-65
2023/12/17 08:21:55;;;;;;;5.50;3.40;;;3.80;71.60;;;;;;2260746;56;20974;-65
2023/12/17 08:24:21;;;;;;;5.85;3.20;;;3.80;71.70;;;;;;2267260;56;20928;-65
2023/12/17 08:26:48;;;;;;;8.75;3.50;;;3.80;71.60;;;;;;2488292;55;21420;-66
2023/12/17 08:29:20;;;;;;;6.72;3.90;;;3.90;71.70;;;;;;2488774;55;21307;-65
2023/12/17 08:31:51;;;;;;;6.87;2.92;;;3.90;71.70;;;;;;2510263;54;20984;-66
2023/12/17 08:34:18;;;;;;;4.43;2.40;;;3.90;71.70;;;;;;2536830;54;20931;-66
2023/12/17 08:36:44;;;;;;;6.82;3.50;;;3.90;71.70;;;;;;2288526;56;21405;-66
2023/12/17 08:39:11;;;;;;;5.50;3.28;;;4.00;71.80;;;;;;2499671;55;21015;-66
2023/12/17 08:41:39;;;;;;;4.55;2.60;;;4.00;71.80;;;;;;2261167;55;20986;-66
2023/12/17 08:44:05;;;;;;;5.95;3.25;;;4.00;71.80;;;;;;2259863;56;20954;-66
2023/12/17 08:46:39;;;;;;;5.90;2.78;;;4.10;71.80;;;;;;2488519;54;21010;-66
2023/12/17 08:49:06;;;;;;;5.40;2.90;;;4.10;71.70;;;;;;2263547;56;21572;-65
2023/12/17 08:51:32;;;;;;;8.43;5.40;;;4.10;71.50;;;;;;2240792;55;21120;-65
2023/12/17 08:54:01;;;;;;;9.77;3.70;;;4.10;71.50;;;;;;2477918;55;21062;-66
2023/12/17 08:56:27;;;;;;;10.00;3.80;;;4.10;71.40;;;;;;2264754;56;21494;-64
2023/12/17 08:58:54;;;;;;;6.30;2.95;;;4.10;71.40;;;;;;2277605;56;20914;-63
2023/12/17 09:01:20;;;;;;;5.65;3.55;;;4.10;71.20;;;;;;2289348;56;21904;-65
2023/12/17 09:03:46;;;;;;;4.95;2.83;;;4.10;71.10;;;;;;2523906;54;21022;-65
2023/12/17 09:06:23;;;;;;;7.53;3.15;;;4.20;71.20;;;;;;2525685;54;20977;-65
2023/12/17 09:08:49;;;;;;;6.57;3.33;;;4.20;71.30;;;;;;2485664;54;20971;-65
2023/12/17 09:11:18;;;;;;;8.38;3.05;;;4.20;71.30;;;;;;2290156;56;21005;-65
2023/12/17 09:13:44;;;;;;;6.85;3.72;;;4.20;71.40;;;;;;2289176;56;20934;-65
2023/12/17 09:16:13;;;;;;;6.15;3.12;;;4.20;71.30;;;;;;2289887;56;20997;-65
2023/12/17 09:18:41;;;;;;;5.32;3.25;;;4.20;71.30;;;;;;2290369;56;21061;-64
2023/12/17 09:21:07;;;;;;;4.50;2.40;;;4.20;71.30;;;;;;2269952;56;20980;-64
2023/12/17 09:23:34;;;;;;;6.90;3.55;;;4.30;71.40;;;;;;2281219;56;20997;-65
2023/12/17 09:26:00;;;;;;;6.12;3.40;;;4.20;71.30;;;;;;2524816;54;20930;-66
2023/12/17 09:28:28;;;;;;;7.75;4.03;;;4.30;71.50;;;;;;2266575;55;20950;-65
2023/12/17 09:30:54;;;;;;;8.45;4.05;;;4.30;71.50;;;;;;2284582;55;20938;-64
2023/12/17 09:33:22;;;;;;;7.15;3.67;;;4.30;71.50;;;;;;2524676;54;21430;-65
2023/12/17 09:35:52;;;;;;;6.82;3.28;;;4.30;71.50;;;;;;2289576;55;21517;-66
2023/12/17 09:38:29;;;;;;;7.43;4.20;;;4.40;71.60;;;;;;2288267;56;21316;-65
2023/12/17 09:41:25;;;;;;;8.32;4.53;;;4.40;71.60;;;;;;2287858;55;20954;-65
2023/12/17 09:43:53;;;;;;;9.35;4.45;;;4.40;71.60;;;;;;2288749;56;20902;-65
2023/12/17 09:46:22;;;;;;;14.60;6.80;;;4.40;71.60;;;;;;2524706;54;21015;-67
2023/12/17 09:48:52;;;;;;;14.00;5.82;;;4.50;71.70;;;;;;2524406;54;20918;-67
2023/12/17 09:51:24;;;;;;;9.35;4.78;;;4.50;71.70;;;;;;2524930;54;21689;-68
2023/12/17 09:53:56;;;;;;;7.72;4.35;;;4.50;71.70;;;;;;2523750;54;21836;-67
2023/12/17 09:56:26;;;;;;;7.68;4.70;;;4.50;71.60;;;;;;2524656;54;20969;-68
2023/12/17 09:58:56;;;;;;;10.15;4.70;;;4.60;71.70;;;;;;2524680;54;20957;-68
2023/12/17 10:01:22;;;;;;;6.37;3.80;;;4.60;71.60;;;;;;2525761;54;20909;-68
2023/12/17 10:03:49;;;;;;;10.07;4.25;;;4.60;71.60;;;;;;2525277;54;20989;-68
2023/12/17 10:06:18;;;;;;;8.00;4.75;;;4.70;71.80;;;;;;2525201;54;21486;-68
2023/12/17 10:08:45;;;;;;;12.68;4.68;;;4.70;71.80;;;;;;2524716;54;21379;-68
2023/12/17 10:11:15;;;;;;;9.18;4.82;;;4.70;71.90;;;;;;2488216;55;21388;-68
2023/12/17 10:13:43;;;;;;;7.32;4.15;;;4.70;71.90;;;;;;2282876;55;21027;-68
2023/12/17 10:16:09;;;;;;;7.65;4.03;;;4.80;71.90;;;;;;2535422;54;20999;-68
2023/12/17 10:18:36;;;;;;;5.90;3.60;;;4.80;71.90;;;;;;2297650;56;21471;-68
2023/12/17 10:21:04;;;;;;;8.27;3.92;;;4.80;71.90;;;;;;2290199;56;21071;-68
2023/12/17 10:23:45;;;;;;;6.10;3.70;;;4.90;71.90;;;;;;2536819;54;20936;-68
2023/12/17 10:26:13;;;;;;;7.95;3.95;;;4.90;71.80;;;;;;2532568;54;20966;-68
2023/12/17 10:28:45;;;;;;;6.65;3.85;;;4.90;71.90;;;;;;2519549;54;20972;-68
2023/12/17 10:31:13;;;;;;;7.50;4.03;;;4.90;71.80;;;;;;2521697;54;21710;-69
2023/12/17 10:33:58;;;;;;;14.15;3.60;;;4.90;71.60;;;;;;2536635;54;20984;-69
2023/12/17 10:36:26;;;;;;;6.05;2.80;;;5.00;71.50;;;;;;2536935;54;20983;-69
2023/12/17 10:38:54;;;;;;;8.18;3.65;;;5.00;71.60;;;;;;2299901;55;20924;-68
2023/12/17 10:41:23;;;;;;;6.22;3.67;;;5.00;71.60;;;;;;2298837;55;20992;-69
2023/12/17 10:43:50;;;;;;;7.03;4.05;;;5.00;71.50;;;;;;2299392;56;21000;-68
2023/12/17 10:46:17;;;;;;;7.87;3.70;;;5.00;71.40;;;;;;2536434;54;20972;-69
2023/12/17 10:48:44;;;;;;;10.48;6.18;;;5.00;71.40;;;;;;2495388;54;20941;-69
2023/12/17 10:51:13;;;;;;;8.65;5.07;;;5.10;71.60;;;;;;2256607;56;20962;-69
2023/12/17 10:53:39;;;;;;;9.52;5.70;;;5.10;71.70;;;;;;2479147;55;21617;-69
2023/12/17 10:56:06;;;;;;;10.98;5.57;;;5.10;71.70;;;;;;2488127;54;21004;-69
2023/12/17 10:58:32;;;;;;;13.18;5.22;;;5.10;71.70;;;;;;2260325;55;21195;-69
2023/12/17 11:00:59;;;;;;;10.25;4.62;;;5.10;71.60;;;;;;2495586;54;21055;-69
2023/12/17 11:03:30;;;;;;;8.23;4.55;;;5.20;71.50;;;;;;2462880;55;21685;-68
2023/12/17 11:06:09;;;;;;;8.23;4.37;;;5.20;71.40;;;;;;2479705;55;20979;-69
2023/12/17 11:08:36;;;;;;;8.55;3.97;;;5.20;71.30;;;;;;2495047;55;21051;-69
2023/12/17 11:11:03;;;;;;;6.87;3.83;;;5.20;71.30;;;;;;2260943;55;21027;-69
2023/12/17 11:13:31;;;;;;;7.85;4.32;;;5.20;71.40;;;;;;2264382;55;21889;-69
2023/12/17 11:16:26;;;;;;;7.35;3.90;;;5.20;71.50;;;;;;2487596;55;20990;-69
2023/12/17 11:18:53;;;;;;;8.18;4.65;;;5.30;71.60;;;;;;2265243;56;21006;-69
2023/12/17 11:21:19;;;;;;;6.00;3.55;;;5.30;71.60;;;;;;2488579;55;21682;-69
2023/12/17 11:23:52;;;;;;;8.35;4.32;;;5.30;71.60;;;;;;2275257;56;20934;-69
2023/12/17 11:26:19;;;;;;;7.12;4.30;;;5.30;71.60;;;;;;2251297;56;21429;-69
2023/12/17 11:28:45;;;;;;;7.28;3.97;;;5.30;71.50;;;;;;2259812;56;21078;-69
2023/12/17 11:31:13;;;;;;;7.25;3.95;;;5.30;71.30;;;;;;2476563;55;21033;-70
2023/12/17 11:33:40;;;;;;;8.93;5.37;;;5.40;71.40;;;;;;2443749;54;20979;-69
2023/12/17 11:36:10;;;;;;;8.23;4.72;;;5.40;71.50;;;;;;2484709;55;21002;-69
2023/12/17 11:38:38;;;;;;;6.57;4.25;;;5.40;71.60;;;;;;2488214;55;20971;-67
2023/12/17 11:41:07;;;;;;;7.65;4.60;;;5.40;71.60;;;;;;2276269;55;20923;-69
2023/12/17 11:43:36;;;;;;;7.18;4.37;;;5.40;71.70;;;;;;2473240;55;21023;-69
2023/12/17 11:46:02;;;;;;;6.35;4.03;;;5.50;71.80;;;;;;2260955;56;21019;-69
2023/12/17 11:48:31;;;;;;;8.90;5.30;;;5.50;71.90;;;;;;2260362;56;21007;-69
2023/12/17 11:50:58;;;;;;;6.87;4.20;;;5.50;72.00;;;;;;2259129;55;21034;-69
2023/12/17 11:53:25;;;;;;;6.87;4.20;;;5.50;72.10;;;;;;2488677;55;20964;-69
2023/12/17 11:55:55;;;;;;;9.20;5.12;;;5.60;72.20;;;;;;2468393;55;21756;-69
2023/12/17 11:58:26;;;;;;;7.35;4.68;;;5.60;72.10;;;;;;2256418;55;20968;-69
2023/12/17 12:01:09;;;;;;;10.18;5.07;;;5.70;72.20;;;;;;2461220;55;20945;-69
2023/12/17 12:03:38;;;;;;;8.77;4.87;;;5.70;72.10;;;;;;2491033;55;21010;-69
2023/12/17 12:06:09;;;;;;;7.68;4.12;;;5.80;72.20;;;;;;2260449;56;21830;-69
2023/12/17 12:08:50;;;;;;;8.73;4.30;;;5.80;72.20;;;;;;2260533;56;21027;-70
2023/12/17 12:11:19;;;;;;;5.47;3.30;;;5.80;72.10;;;;;;2260444;56;20978;-68
2023/12/17 12:13:48;;;;;;;7.15;3.90;;;5.80;72.00;;;;;;2487610;55;21013;-69
2023/12/17 12:16:15;;;;;;;6.28;3.42;;;5.80;72.00;;;;;;2265313;55;20949;-69
2023/12/17 12:18:42;;;;;;;7.50;4.37;;;5.90;72.10;;;;;;2242035;56;21784;-69
2023/12/17 12:21:18;;;;;;;6.03;3.45;;;5.90;72.10;;;;;;2503272;54;20984;-68
2023/12/17 12:23:54;;;;;;;11.90;6.68;;;5.90;72.00;;;;;;2534985;54;20951;-69
2023/12/17 12:26:23;;;;;;;9.13;5.40;;;5.90;72.00;;;;;;2299847;56;21016;-69
2023/12/17 12:28:59;;;;;;;9.35;5.28;;;6.00;72.30;;;;;;2299273;56;20984;-69
2023/12/17 12:31:26;;;;;;;9.40;5.10;;;6.00;72.40;;;;;;2299337;55;21544;-69
2023/12/17 12:33:56;;;;;;;7.85;4.68;;;6.00;72.50;;;;;;2259996;55;20947;-69
2023/12/17 12:36:22;;;;;;;8.88;5.18;;;6.00;72.50;;;;;;2501585;54;21238;-69
2023/12/17 12:39:02;;;;;;;7.35;4.32;;;6.10;72.50;;;;;;2476943;55;21682;-70
2023/12/17 12:41:29;;;;;;;8.57;5.18;;;6.10;72.40;;;;;;2249454;56;21472;-70
2023/12/17 12:44:00;;;;;;;8.10;4.70;;;6.20;72.50;;;;;;2488796;55;21082;-69
2023/12/17 12:46:27;;;;;;;8.63;5.22;;;6.20;72.50;;;;;;2451949;55;20986;-69
2023/12/17 12:48:57;;;;;;;8.73;4.95;;;6.20;72.40;;;;;;2260268;56;21070;-69
2023/12/17 12:51:24;;;;;;;8.48;4.78;;;6.30;72.40;;;;;;2256969;56;21571;-68
2023/12/17 12:53:51;;;;;;;9.10;5.00;;;6.30;72.40;;;;;;2252048;56;21195;-68
2023/12/17 12:56:17;;;;;;;8.48;5.10;;;6.30;72.50;;;;;;2477379;54;21055;-69
2023/12/17 12:58:44;;;;;;;9.65;5.28;;;6.40;72.60;;;;;;2255241;56;20956;-69
2023/12/17 13:01:10;;;;;;;9.20;4.82;;;6.40;72.40;;;;;;2488101;55;21891;-70
2023/12/17 13:03:37;;;;;;;8.95;5.32;;;6.40;72.50;;;;;;2260524;55;20998;-69